createdAt,value
2019-03-29T00:00:02.499Z,20.90
2019-03-29T00:02:31.139Z,17.97
2019-03-29T00:04:59.330Z,19.23
2019-03-29T00:07:38.997Z,20.27
2019-03-29T00:09:57.388Z,17.07
2019-03-29T00:12:25.359Z,18.73
2019-03-29T00:14:53.844Z,18.07
2019-03-29T00:17:22.136Z,22.50
2019-03-29T00:19:50.665Z,18.00
2019-03-29T00:22:18.767Z,20.03
2019-03-29T00:24:46.490Z,22.37
2019-03-29T00:27:14.681Z,15.10
2019-03-29T00:29:43.568Z,21.40
2019-03-29T00:32:11.932Z,21.07
2019-03-29T00:34:40.306Z,18.10
2019-03-29T00:37:08.405Z,20.57
2019-03-29T00:39:37.600Z,18.13
2019-03-29T00:42:05.782Z,23.50
2019-03-29T00:44:33.881Z,23.07
2019-03-29T00:47:02.027Z,19.03
2019-03-29T00:49:30.424Z,22.03
2019-03-29T00:51:58.565Z,23.63
2019-03-29T00:54:28.033Z,19.57
2019-03-29T00:56:56.385Z,19.83
2019-03-29T00:59:25.048Z,19.87
2019-03-29T01:01:53.091Z,24.60
2019-03-29T01:04:21.591Z,24.70
2019-03-29T01:06:49.508Z,21.40
2019-03-29T01:09:17.452Z,21.37
2019-03-29T01:11:45.668Z,27.67
2019-03-29T01:14:13.869Z,32.43
2019-03-29T01:16:41.957Z,27.13
2019-03-29T01:19:10.162Z,29.53
2019-03-29T01:21:38.436Z,36.40
2019-03-29T01:24:07.380Z,34.57
2019-03-29T01:26:35.507Z,39.50
2019-03-29T01:29:04.572Z,37.83
2019-03-29T01:31:32.835Z,34.97
2019-03-29T01:34:01.335Z,41.10
2019-03-29T01:36:29.681Z,41.93
2019-03-29T01:38:57.973Z,44.00
2019-03-29T01:41:26.958Z,46.57
2019-03-29T01:43:54.973Z,46.13
2019-03-29T01:46:23.099Z,49.37
2019-03-29T01:48:51.094Z,45.93
2019-03-29T01:51:19.292Z,52.47
2019-03-29T01:53:47.439Z,53.70
2019-03-29T01:56:15.356Z,54.70
2019-03-29T01:58:43.381Z,55.87
2019-03-29T02:01:11.580Z,56.37
2019-03-29T02:03:39.984Z,61.63
2019-03-29T02:06:07.972Z,52.00
2019-03-29T02:08:37.682Z,58.33
2019-03-29T02:11:06.166Z,62.00
2019-03-29T02:13:34.958Z,60.67
2019-03-29T02:16:03.815Z,54.60
2019-03-29T02:18:32.181Z,59.07
2019-03-29T02:21:00.598Z,55.93
2019-03-29T02:23:28.689Z,57.63
2019-03-29T02:25:56.524Z,50.43
2019-03-29T02:28:24.625Z,52.40
2019-03-29T02:30:52.558Z,54.67
2019-03-29T02:33:20.831Z,52.13
2019-03-29T02:35:51.291Z,51.30
2019-03-29T02:38:19.220Z,47.43
2019-03-29T02:40:47.537Z,48.33
2019-03-29T02:43:15.690Z,49.53
2019-03-29T02:45:43.637Z,53.80
2019-03-29T02:48:11.958Z,48.10
2019-03-29T02:50:40.198Z,48.57
2019-03-29T02:53:08.270Z,46.00
2019-03-29T02:55:36.084Z,49.93
2019-03-29T02:58:04.340Z,48.17
2019-03-29T03:00:32.260Z,49.50
2019-03-29T03:03:00.993Z,49.93
2019-03-29T03:05:29.364Z,46.23
2019-03-29T03:07:57.498Z,48.07
2019-03-29T03:10:25.653Z,45.00
2019-03-29T03:12:53.720Z,43.23
2019-03-29T03:15:23.097Z,39.80
2019-03-29T03:17:51.252Z,35.37
2019-03-29T03:20:21.476Z,37.53
2019-03-29T03:22:49.776Z,38.77
2019-03-29T03:25:17.792Z,40.57
2019-03-29T03:27:45.733Z,43.33
2019-03-29T03:30:14.606Z,39.20
2019-03-29T03:32:42.729Z,40.00
2019-03-29T03:35:11.724Z,38.63
2019-03-29T03:37:39.829Z,39.50
2019-03-29T03:40:08.398Z,38.20
2019-03-29T03:42:36.726Z,36.23
2019-03-29T03:45:05.138Z,33.43
2019-03-29T03:47:33.028Z,34.57
2019-03-29T03:50:01.759Z,35.67
2019-03-29T03:52:30.397Z,34.57
2019-03-29T03:54:58.477Z,32.90
2019-03-29T03:57:27.996Z,33.60
2019-03-29T03:59:56.377Z,33.37
2019-03-29T04:02:24.522Z,31.30
2019-03-29T04:04:52.692Z,28.70
2019-03-29T04:07:20.884Z,32.07
2019-03-29T04:09:50.746Z,30.80
2019-03-29T04:12:19.189Z,34.20
2019-03-29T04:14:47.534Z,30.37
2019-03-29T04:17:15.714Z,29.03
2019-03-29T04:19:43.877Z,30.90
2019-03-29T04:22:12.356Z,30.50
2019-03-29T04:24:40.541Z,31.57
2019-03-29T04:27:08.399Z,29.80
2019-03-29T04:29:36.619Z,26.63
2019-03-29T04:32:06.382Z,29.40
2019-03-29T04:34:34.532Z,35.70
2019-03-29T04:37:02.369Z,31.13
2019-03-29T04:39:30.592Z,32.83
2019-03-29T04:41:59.206Z,32.10
2019-03-29T04:44:27.218Z,33.27
2019-03-29T04:46:55.271Z,29.27
2019-03-29T04:49:23.301Z,29.20
2019-03-29T04:51:51.818Z,31.57
2019-03-29T04:54:19.561Z,31.17
2019-03-29T04:56:47.445Z,32.83
2019-03-29T04:59:15.559Z,37.03
2019-03-29T05:01:43.511Z,30.50
2019-03-29T05:04:11.809Z,36.00
2019-03-29T05:06:39.867Z,35.73
2019-03-29T05:09:08.114Z,32.37
2019-03-29T05:11:36.358Z,36.27
2019-03-29T05:14:04.656Z,35.87
2019-03-29T05:16:35.379Z,35.00
2019-03-29T05:19:03.387Z,35.23
2019-03-29T05:21:31.381Z,38.70
2019-03-29T05:23:59.493Z,37.07
2019-03-29T05:26:27.371Z,35.40
2019-03-29T05:28:55.438Z,40.77
2019-03-29T05:31:23.599Z,34.67
2019-03-29T05:33:52.307Z,36.83
2019-03-29T05:36:21.493Z,36.80
2019-03-29T05:38:49.520Z,36.47
2019-03-29T05:41:17.283Z,39.83
2019-03-29T05:43:45.435Z,36.63
2019-03-29T05:46:13.347Z,37.20
2019-03-29T05:48:41.838Z,40.13
2019-03-29T05:51:12.991Z,36.17
2019-03-29T05:53:41.740Z,38.80
2019-03-29T05:56:19.715Z,37.43
2019-03-29T05:58:48.157Z,38.67
2019-03-29T06:01:17.085Z,36.27
2019-03-29T06:03:45.497Z,34.93
2019-03-29T06:06:13.920Z,31.43
2019-03-29T06:08:42.506Z,33.23
2019-03-29T06:11:10.822Z,33.27
2019-03-29T06:13:39.787Z,31.80
2019-03-29T06:16:08.177Z,31.67
2019-03-29T06:18:36.699Z,31.00
2019-03-29T06:21:05.552Z,29.93
2019-03-29T06:23:34.012Z,27.93
2019-03-29T06:26:02.323Z,30.47
2019-03-29T06:28:31.211Z,28.40
2019-03-29T06:31:06.611Z,28.47
2019-03-29T06:33:35.939Z,28.07
2019-03-29T06:36:06.801Z,23.83
2019-03-29T06:38:37.305Z,27.20
2019-03-29T06:41:06.310Z,23.03
2019-03-29T06:43:37.643Z,23.47
2019-03-29T06:46:06.377Z,23.33
2019-03-29T06:48:36.082Z,25.07
2019-03-29T06:51:04.537Z,30.43
2019-03-29T06:53:33.519Z,25.17
2019-03-29T06:56:01.894Z,23.10
2019-03-29T06:58:30.480Z,23.70
2019-03-29T07:01:02.396Z,23.63
2019-03-29T07:03:31.540Z,22.10
2019-03-29T07:06:00.205Z,22.90
2019-03-29T07:08:28.423Z,21.80
2019-03-29T07:10:57.616Z,23.10
2019-03-29T07:13:26.074Z,22.63
2019-03-29T07:15:54.845Z,23.45
2019-03-29T07:18:23.547Z,21.37
2019-03-29T07:20:52.058Z,21.52
2019-03-29T07:23:20.741Z,21.42
2019-03-29T07:25:49.806Z,21.90
2019-03-29T07:28:18.129Z,22.13
2019-03-29T07:30:46.424Z,21.73
2019-03-29T07:33:14.476Z,23.07
2019-03-29T07:35:43.188Z,23.60
2019-03-29T07:38:11.477Z,23.42
2019-03-29T07:40:39.993Z,23.87
2019-03-29T07:43:08.258Z,24.72
2019-03-29T07:45:36.998Z,24.72
2019-03-29T07:48:05.647Z,24.67
2019-03-29T07:50:33.929Z,25.88
2019-03-29T07:53:04.885Z,25.50
2019-03-29T07:55:36.775Z,26.77
2019-03-29T07:58:04.710Z,24.87
2019-03-29T08:00:33.239Z,27.35
2019-03-29T08:03:01.903Z,26.57
2019-03-29T08:05:30.137Z,26.82
2019-03-29T08:07:59.272Z,27.10
2019-03-29T08:10:31.284Z,26.48
2019-03-29T08:12:58.861Z,26.73
2019-03-29T08:15:27.130Z,25.95
2019-03-29T08:17:56.093Z,26.00
2019-03-29T08:20:39.231Z,27.70
2019-03-29T08:22:55.974Z,24.63
2019-03-29T08:25:24.758Z,25.05
2019-03-29T08:27:53.201Z,24.52
2019-03-29T08:30:23.046Z,25.85
2019-03-29T08:32:54.165Z,23.55
2019-03-29T08:35:22.266Z,21.15
2019-03-29T08:37:51.244Z,24.37
2019-03-29T08:40:19.693Z,22.17
2019-03-29T08:42:48.918Z,24.52
2019-03-29T08:45:17.403Z,23.13
2019-03-29T08:47:48.502Z,22.70
2019-03-29T08:50:17.154Z,22.97
2019-03-29T08:52:45.742Z,23.87
2019-03-29T08:55:17.512Z,24.20
2019-03-29T08:57:45.881Z,24.30
2019-03-29T09:00:21.953Z,24.40
2019-03-29T09:02:51.206Z,24.67
2019-03-29T09:05:19.589Z,23.03
2019-03-29T09:07:49.869Z,24.77
2019-03-29T09:10:23.779Z,25.37
2019-03-29T09:12:52.213Z,25.00
2019-03-29T09:15:21.805Z,25.63
2019-03-29T09:17:50.217Z,24.93
2019-03-29T09:20:19.094Z,27.10
2019-03-29T09:22:47.780Z,26.97
2019-03-29T09:25:20.861Z,25.93
2019-03-29T09:27:47.913Z,25.37
2019-03-29T09:30:16.164Z,25.00
2019-03-29T09:32:44.807Z,26.80
2019-03-29T09:35:13.368Z,25.87
2019-03-29T09:37:42.110Z,28.40
2019-03-29T09:40:13.749Z,27.63
2019-03-29T09:42:44.177Z,28.10
2019-03-29T09:45:12.876Z,27.93
2019-03-29T09:47:41.758Z,30.13
2019-03-29T09:50:17.539Z,30.57
2019-03-29T09:52:46.162Z,30.80
2019-03-29T09:55:14.722Z,30.17
2019-03-29T09:57:44.102Z,30.23
2019-03-29T10:00:20.973Z,32.10
2019-03-29T10:02:43.567Z,31.63
2019-03-29T10:05:14.645Z,32.73
2019-03-29T10:07:43.948Z,33.27
2019-03-29T10:10:12.740Z,31.83
2019-03-29T10:12:43.751Z,32.10
2019-03-29T10:15:12.095Z,30.73
2019-03-29T10:17:40.915Z,31.17
2019-03-29T10:20:09.543Z,31.57
2019-03-29T10:22:38.725Z,31.53
2019-03-29T10:25:18.337Z,31.60
2019-03-29T10:27:37.890Z,30.80
2019-03-29T10:30:08.280Z,32.00
2019-03-29T10:32:36.891Z,31.70
2019-03-29T10:35:06.131Z,33.20
2019-03-29T10:37:34.755Z,32.33
2019-03-29T10:40:06.354Z,33.00
2019-03-29T10:42:35.131Z,33.60
2019-03-29T10:45:03.660Z,33.20
2019-03-29T10:47:43.316Z,32.80
2019-03-29T10:50:02.541Z,34.60
2019-03-29T10:52:30.775Z,32.43
2019-03-29T10:55:00.033Z,32.37
2019-03-29T10:57:28.849Z,32.97
2019-03-29T10:59:57.475Z,33.87
2019-03-29T11:02:26.168Z,34.20
2019-03-29T11:04:55.067Z,35.60
2019-03-29T11:07:23.587Z,34.50
2019-03-29T11:09:52.225Z,33.93
2019-03-29T11:12:20.560Z,33.83
2019-03-29T11:14:49.275Z,35.47
2019-03-29T11:17:18.039Z,33.23
2019-03-29T11:19:46.715Z,33.83
2019-03-29T11:22:15.446Z,34.43
2019-03-29T11:24:45.266Z,34.57
2019-03-29T11:27:13.446Z,36.70
2019-03-29T11:29:42.052Z,32.17
2019-03-29T11:32:10.575Z,32.50
2019-03-29T11:34:39.667Z,33.87
2019-03-29T11:37:08.305Z,35.57
2019-03-29T11:39:37.069Z,35.20
2019-03-29T11:42:05.770Z,33.47
2019-03-29T11:44:34.633Z,36.07
2019-03-29T11:47:03.627Z,35.00
2019-03-29T11:49:32.259Z,34.47
2019-03-29T11:52:01.046Z,35.10
2019-03-29T11:54:29.426Z,34.20
2019-03-29T11:56:57.567Z,35.90
2019-03-29T11:59:26.131Z,35.07
2019-03-29T12:01:57.611Z,36.00
2019-03-29T12:04:27.319Z,35.23
2019-03-29T12:06:58.718Z,34.80
2019-03-29T12:09:28.747Z,35.37
2019-03-29T12:11:57.968Z,35.30
2019-03-29T12:14:26.707Z,36.53
2019-03-29T12:16:55.155Z,36.77
2019-03-29T12:19:23.978Z,36.63
2019-03-29T12:21:52.625Z,37.47
2019-03-29T12:24:26.140Z,37.20
2019-03-29T12:26:55.178Z,36.50
2019-03-29T12:29:23.920Z,35.97
2019-03-29T12:31:52.667Z,36.23
2019-03-29T12:34:21.912Z,35.47
2019-03-29T12:36:50.882Z,37.13
2019-03-29T12:39:19.637Z,35.97
2019-03-29T12:41:48.449Z,34.47
2019-03-29T12:44:20.699Z,38.67
2019-03-29T12:46:50.360Z,36.17
2019-03-29T12:49:18.582Z,34.13
2019-03-29T12:51:49.101Z,35.63
2019-03-29T12:54:20.147Z,37.33
2019-03-29T12:56:48.649Z,37.33
2019-03-29T12:59:19.001Z,38.00
2019-03-29T13:01:50.380Z,36.43
2019-03-29T13:04:18.746Z,34.90
2019-03-29T13:06:47.541Z,34.87
2019-03-29T13:09:15.809Z,34.77
2019-03-29T13:11:44.300Z,34.43
2019-03-29T13:14:13.159Z,33.00
2019-03-29T13:16:41.428Z,32.43
2019-03-29T13:19:10.033Z,33.80
2019-03-29T13:21:38.960Z,34.30
2019-03-29T13:24:07.705Z,34.00
2019-03-29T13:26:39.347Z,34.07
2019-03-29T13:29:08.512Z,35.10
2019-03-29T13:31:37.735Z,34.97
2019-03-29T13:34:08.399Z,33.27
2019-03-29T13:36:37.470Z,34.90
2019-03-29T13:39:06.674Z,33.13
2019-03-29T13:41:36.331Z,34.57
2019-03-29T13:44:06.788Z,33.80
2019-03-29T13:46:38.178Z,32.47
2019-03-29T13:49:14.295Z,33.73
2019-03-29T13:51:45.703Z,32.10
2019-03-29T13:54:14.768Z,33.00
2019-03-29T13:56:43.895Z,31.63
2019-03-29T13:59:13.946Z,30.93
2019-03-29T14:01:42.615Z,33.37
2019-03-29T14:04:11.473Z,31.23
2019-03-29T14:06:43.464Z,31.93
2019-03-29T14:17:39.820Z,31.70
2019-03-29T14:20:09.116Z,31.87
2019-03-29T14:22:37.786Z,31.40
2019-03-29T14:25:10.213Z,32.47
2019-03-29T14:27:39.147Z,31.67
2019-03-29T14:30:08.201Z,33.00
2019-03-29T14:32:44.055Z,32.33
2019-03-29T14:35:13.587Z,30.50
2019-03-29T14:37:43.100Z,31.40
2019-03-29T14:40:11.975Z,32.20
2019-03-29T14:42:41.030Z,33.37
2019-03-29T14:45:09.830Z,31.30
2019-03-29T14:47:42.917Z,34.13
2019-03-29T14:50:09.618Z,31.37
2019-03-29T14:52:38.568Z,31.93
2019-03-29T14:55:07.321Z,31.53
2019-03-29T14:57:37.866Z,31.17
2019-03-29T15:00:08.520Z,32.60
2019-03-29T15:02:37.975Z,36.73
2019-03-29T15:05:07.109Z,31.03
2019-03-29T15:07:36.666Z,29.10
2019-03-29T15:10:38.263Z,32.00
2019-03-29T15:13:15.457Z,31.47
2019-03-29T15:15:53.223Z,31.37
2019-03-29T15:18:27.179Z,31.13
2019-03-29T15:20:56.490Z,32.00
2019-03-29T15:24:16.209Z,34.40
2019-03-29T15:29:47.855Z,31.33
2019-03-29T15:32:18.431Z,32.70
2019-03-29T15:34:53.751Z,31.13
2019-03-29T15:37:22.655Z,33.10
2019-03-29T15:39:52.906Z,31.87
2019-03-29T15:42:21.793Z,32.17
2019-03-29T15:44:51.281Z,33.93
2019-03-29T15:47:21.195Z,34.13
2019-03-29T15:49:56.226Z,32.53
2019-03-29T15:52:37.125Z,31.70
2019-03-29T15:55:17.588Z,31.77
2019-03-29T15:57:58.751Z,32.03
2019-03-29T16:00:28.270Z,33.00
2019-03-29T16:03:08.106Z,32.33
2019-03-29T16:05:44.556Z,31.63
2019-03-29T16:08:13.850Z,32.40
2019-03-29T16:10:44.464Z,31.67
2019-03-29T16:13:17.270Z,32.17
2019-03-29T16:15:48.361Z,32.47
2019-03-29T16:18:29.547Z,31.33
2019-03-29T16:20:54.493Z,31.70
2019-03-29T16:23:23.312Z,31.50
2019-03-29T16:25:51.835Z,32.63
2019-03-29T16:28:20.789Z,32.27
2019-03-29T16:30:55.330Z,31.97
2019-03-29T16:33:33.242Z,31.43
2019-03-29T16:36:14.587Z,32.23
2019-03-29T16:38:51.549Z,31.83
2019-03-29T16:41:20.664Z,31.97
2019-03-29T16:43:51.056Z,31.23
2019-03-29T16:46:19.736Z,31.37
2019-03-29T16:48:48.795Z,30.87
2019-03-29T16:51:17.243Z,30.87
2019-03-29T16:53:47.174Z,31.30
2019-03-29T16:56:16.567Z,32.10
2019-03-29T16:59:11.776Z,31.60
2019-03-29T17:01:36.552Z,32.13
2019-03-29T17:04:05.656Z,30.60
2019-03-29T17:06:59.972Z,30.50
2019-03-29T17:09:08.150Z,31.50
2019-03-29T17:12:00.362Z,30.70
2019-03-29T17:14:33.466Z,33.93
2019-03-29T17:17:27.662Z,34.60
2019-03-29T17:20:40.487Z,32.20
2019-03-29T17:23:17.468Z,32.13
2019-03-29T17:25:51.995Z,33.00
2019-03-29T17:28:21.544Z,30.77
2019-03-29T17:31:24.625Z,34.77
2019-03-29T17:33:53.105Z,31.50
2019-03-29T17:36:21.192Z,31.47
2019-03-29T17:38:49.960Z,34.17
2019-03-29T17:41:18.688Z,34.80
2019-03-29T17:43:50.571Z,35.33
2019-03-29T17:46:20.139Z,33.80
2019-03-29T17:48:49.355Z,37.17
2019-03-29T17:51:18.814Z,37.73
2019-03-29T17:54:04.859Z,43.00
2019-03-29T17:56:27.565Z,43.57
2019-03-29T17:58:56.972Z,40.73
2019-03-29T18:01:26.519Z,35.53
2019-03-29T18:03:55.298Z,31.87
2019-03-29T18:06:24.374Z,41.17
2019-03-29T18:08:56.317Z,38.53
2019-03-29T18:11:52.355Z,35.73
2019-03-29T18:14:24.253Z,34.23
2019-03-29T18:16:53.979Z,35.60
2019-03-29T18:19:28.653Z,34.60
2019-03-29T18:22:03.588Z,35.87
2019-03-29T18:24:34.839Z,33.23
2019-03-29T18:27:07.555Z,29.83
2019-03-29T18:29:36.745Z,37.30
2019-03-29T18:32:10.554Z,42.47
2019-03-29T18:34:42.419Z,47.77
2019-03-29T18:37:20.581Z,41.97
2019-03-29T18:39:49.577Z,42.90
2019-03-29T18:42:18.195Z,41.83
2019-03-29T18:44:50.853Z,45.10
2019-03-29T18:47:19.629Z,42.50
2019-03-29T18:49:48.600Z,46.47
2019-03-29T18:52:21.000Z,42.23
2019-03-29T18:54:50.012Z,38.13
2019-03-29T18:57:20.531Z,40.63
2019-03-29T18:59:57.047Z,34.83
2019-03-29T19:02:56.704Z,46.17
2019-03-29T19:05:28.101Z,43.57
2019-03-29T19:08:04.256Z,48.67
2019-03-29T19:10:43.571Z,47.77
2019-03-29T19:13:15.535Z,47.53
2019-03-29T19:16:01.658Z,47.93
2019-03-29T19:18:32.130Z,50.70
2019-03-29T19:21:26.381Z,47.13
2019-03-29T19:23:46.671Z,49.00
2019-03-29T19:26:23.084Z,46.63
2019-03-29T19:28:53.468Z,51.03
2019-03-29T19:31:23.115Z,47.50
2019-03-29T19:36:28.659Z,51.13
2019-03-29T19:38:57.198Z,49.50
2019-03-29T19:41:26.181Z,50.83
2019-03-29T19:43:58.173Z,49.83
2019-03-29T19:46:30.036Z,49.37
2019-03-29T19:49:01.640Z,52.40
2019-03-29T19:51:30.415Z,50.83
2019-03-29T19:54:07.235Z,50.90
2019-03-29T19:56:31.649Z,48.97
2019-03-29T19:59:02.309Z,52.77
2019-03-29T20:01:32.053Z,49.70
2019-03-29T20:04:01.473Z,53.57
2019-03-29T20:06:37.112Z,53.20
2019-03-29T20:09:08.525Z,60.73
2019-03-29T20:11:50.996Z,53.07
2019-03-29T20:14:19.663Z,54.27
2019-03-29T20:16:49.364Z,53.57
2019-03-29T20:19:27.913Z,54.93
2019-03-29T20:21:56.903Z,56.00
2019-03-29T20:24:25.743Z,55.40
2019-03-29T20:26:55.109Z,58.73
2019-03-29T20:29:24.046Z,56.30
2019-03-29T20:31:52.608Z,56.90
2019-03-29T20:34:22.972Z,60.93
2019-03-29T20:36:54.726Z,59.93
2019-03-29T20:39:24.150Z,60.57
2019-03-29T20:41:53.045Z,57.30
2019-03-29T20:44:22.099Z,67.67
2019-03-29T20:46:50.967Z,62.20
2019-03-29T20:49:22.764Z,60.57
2019-03-29T20:51:51.824Z,63.40
2019-03-29T20:54:20.648Z,61.10
2019-03-29T20:56:53.315Z,58.50
2019-03-29T20:59:23.878Z,66.17
2019-03-29T21:01:52.997Z,56.47
2019-03-29T21:04:22.156Z,61.77
2019-03-29T21:06:50.720Z,55.83
2019-03-29T21:09:19.286Z,54.23
2019-03-29T21:11:47.791Z,52.53
2019-03-29T21:14:18.195Z,53.77
2019-03-29T21:16:47.319Z,56.77
2019-03-29T21:19:16.628Z,52.83
2019-03-29T21:21:45.878Z,49.80
2019-03-29T21:24:14.293Z,47.43
2019-03-29T21:26:43.759Z,48.33
2019-03-29T21:29:12.812Z,48.60
2019-03-29T21:31:41.797Z,46.77
2019-03-29T21:34:10.302Z,41.33
2019-03-29T21:36:51.589Z,49.17
2019-03-29T21:39:19.286Z,46.93
2019-03-29T21:41:48.625Z,47.20
2019-03-29T21:44:17.735Z,50.40
2019-03-29T21:46:46.474Z,41.83
2019-03-29T21:49:17.083Z,49.43
2019-03-29T21:51:46.522Z,51.80
2019-03-29T21:54:21.266Z,47.23
2019-03-29T21:56:50.633Z,43.87
2019-03-29T21:59:19.925Z,53.53
2019-03-29T22:01:50.406Z,52.97
2019-03-29T22:04:19.157Z,58.67
2019-03-29T22:06:48.404Z,57.87
2019-03-29T22:09:17.380Z,61.77
2019-03-29T22:11:46.149Z,58.40
2019-03-29T22:14:15.542Z,53.73
2019-03-29T22:16:44.605Z,49.33
2019-03-29T22:19:13.490Z,50.47
2019-03-29T22:21:41.999Z,48.73
2019-03-29T22:24:10.474Z,46.67
2019-03-29T22:26:45.067Z,36.83
2019-03-29T22:29:13.372Z,45.87
2019-03-29T22:31:41.915Z,48.50
2019-03-29T22:34:12.980Z,53.43
2019-03-29T22:36:42.425Z,50.97
2019-03-29T22:39:11.150Z,50.40
2019-03-29T22:41:40.151Z,46.00
2019-03-29T22:44:08.735Z,39.73
2019-03-29T22:46:38.046Z,28.83
2019-03-29T22:49:07.625Z,28.40
2019-03-29T22:51:36.643Z,32.00
2019-03-29T22:54:05.669Z,35.83
2019-03-29T22:56:34.497Z,39.40
2019-03-29T22:59:08.723Z,33.37
2019-03-29T23:01:42.427Z,31.57
2019-03-29T23:04:19.370Z,34.37
2019-03-29T23:06:48.750Z,45.80
2019-03-29T23:09:17.459Z,47.83
2019-03-29T23:11:47.551Z,42.60
2019-03-29T23:14:16.673Z,48.27
2019-03-29T23:16:45.811Z,56.30
2019-03-29T23:19:18.743Z,44.73
2019-03-29T23:21:47.907Z,36.03
2019-03-29T23:24:17.020Z,42.93
2019-03-29T23:26:47.192Z,40.50
2019-03-29T23:29:17.427Z,35.53
2019-03-29T23:31:49.412Z,39.40
2019-03-29T23:34:19.050Z,41.97
2019-03-29T23:36:47.716Z,32.03
2019-03-29T23:39:17.044Z,26.27
2019-03-29T23:41:46.119Z,31.17
2019-03-29T23:44:15.232Z,26.67
2019-03-29T23:46:44.583Z,29.23
2019-03-29T23:49:21.237Z,33.63
2019-03-29T23:51:45.684Z,46.00
2019-03-29T23:54:14.709Z,31.53
2019-03-29T23:56:44.427Z,49.80
2019-03-29T23:59:14.824Z,39.87
